Ipameri, Brazil
Current Conditions -  °F | °C
As of 4:35 PM on Wednesday 26 Nov 2014 (Local Time) from SBUL Reporting Station
Thunderstorm Thunderstorm  
Wind Chill: 77°   Ceiling: 2500
Heat Index: 79°   Visibility: 6mi
Dew Point: 66°   Wind: 13mph
Humidity: 69%   Direction: 340°NNW
Pressure: 29.88"   Gusts: NA
Location:  17.72°S, 48.16°W
Report Text: SBUL 261835Z 34011KT 9999 TS VCSH BKN025 FEW035CB 25/19 Q1012
Loading
Personal Weather Stations






























Interactive Weather Map New forecast layout! Learn more

10-Day Weather Forecast

Advertisements
Track Severe Weather on mobile